sensor_id;sensor_type;location;lat;lon;timestamp;P1;P2;P0
46591;PMS6003;32314;48.748;9.656;2024-02-26T00:01:00;0.00;0.00;0.00
46591;PMS6003;32314;48.748;9.656;2024-02-26T00:03:46;0.00;0.00;0.00
46591;PMS6003;32314;48.748;9.656;2024-02-26T00:06:32;1.00;1.00;1.00
46591;PMS6003;32314;48.748;9.656;2024-02-26T00:09:19;0.67;0.67;0.33
46591;PMS6003;32314;48.748;9.656;2024-02-26T00:12:05;1.00;1.00;1.00
46591;PMS6003;32314;48.748;9.656;2024-02-26T00:14:51;0.67;0.67;0.00
46591;PMS6003;32314;48.748;9.656;2024-02-26T00:17:38;3.00;0.67;0.00
46591;PMS6003;32314;48.748;9.656;2024-02-26T00:20:24;0.00;0.00;0.00
46591;PMS6003;32314;48.748;9.656;2024-02-26T00:23:10;0.00;0.00;0.00
46591;PMS6003;32314;48.748;9.656;2024-02-26T00:25:55;0.00;0.00;0.00
46591;PMS6003;32314;48.748;9.656;2024-02-26T00:28:42;1.00;1.00;1.00
46591;PMS6003;32314;48.748;9.656;2024-02-26T00:31:29;1.00;1.00;1.00
46591;PMS6003;32314;48.748;9.656;2024-02-26T00:34:15;1.00;1.00;0.33
46591;PMS6003;32314;48.748;9.656;2024-02-26T00:37:01;1.00;1.00;0.00
46591;PMS6003;32314;48.748;9.656;2024-02-26T00:39:47;1.00;1.00;1.00
46591;PMS6003;32314;48.748;9.656;2024-02-26T00:42:33;1.00;1.00;1.00
46591;PMS6003;32314;48.748;9.656;2024-02-26T00:45:19;1.00;1.00;1.00
46591;PMS6003;32314;48.748;9.656;2024-02-26T00:48:06;3.00;3.00;1.00
46591;PMS6003;32314;48.748;9.656;2024-02-26T00:50:53;0.67;0.67;0.67
46591;PMS6003;32314;48.748;9.656;2024-02-26T00:53:39;3.00;1.00;0.67
46591;PMS6003;32314;48.748;9.656;2024-02-26T00:56:25;1.00;1.00;0.00
46591;PMS6003;32314;48.748;9.656;2024-02-26T00:59:14;0.33;0.33;0.33
46591;PMS6003;32314;48.748;9.656;2024-02-26T01:02:00;0.00;0.00;0.00
46591;PMS6003;32314;48.748;9.656;2024-02-26T01:04:48;0.00;0.00;0.00
46591;PMS6003;32314;48.748;9.656;2024-02-26T01:07:34;0.67;0.67;0.67
46591;PMS6003;32314;48.748;9.656;2024-02-26T01:10:21;0.00;0.00;0.00
46591;PMS6003;32314;48.748;9.656;2024-02-26T01:13:08;0.00;0.00;0.00
46591;PMS6003;32314;48.748;9.656;2024-02-26T01:15:57;1.00;1.00;1.00
46591;PMS6003;32314;48.748;9.656;2024-02-26T01:18:43;1.00;1.00;1.00
46591;PMS6003;32314;48.748;9.656;2024-02-26T01:21:29;1.00;1.00;0.33
46591;PMS6003;32314;48.748;9.656;2024-02-26T01:24:16;0.00;0.00;0.00
46591;PMS6003;32314;48.748;9.656;2024-02-26T01:27:02;0.00;0.00;0.00
46591;PMS6003;32314;48.748;9.656;2024-02-26T01:30:06;0.00;0.00;0.00
46591;PMS6003;32314;48.748;9.656;2024-02-26T01:32:53;1.00;1.00;1.00
46591;PMS6003;32314;48.748;9.656;2024-02-26T01:35:39;0.00;0.00;0.00
46591;PMS6003;32314;48.748;9.656;2024-02-26T01:38:26;0.67;0.67;0.67
46591;PMS6003;32314;48.748;9.656;2024-02-26T01:41:13;1.00;1.00;1.00
46591;PMS6003;32314;48.748;9.656;2024-02-26T01:44:00;3.00;1.00;0.00
46591;PMS6003;32314;48.748;9.656;2024-02-26T01:46:48;0.00;0.00;0.00
46591;PMS6003;32314;48.748;9.656;2024-02-26T01:49:34;0.67;0.67;0.00
46591;PMS6003;32314;48.748;9.656;2024-02-26T01:52:21;0.00;0.00;0.00
46591;PMS6003;32314;48.748;9.656;2024-02-26T01:55:11;0.00;0.00;0.00
46591;PMS6003;32314;48.748;9.656;2024-02-26T01:58:00;0.00;0.00;0.00
46591;PMS6003;32314;48.748;9.656;2024-02-26T02:00:49;1.00;1.00;1.00
46591;PMS6003;32314;48.748;9.656;2024-02-26T02:07:35;0.67;0.67;0.00
46591;PMS6003;32314;48.748;9.656;2024-02-26T02:14:21;1.00;1.00;1.00
46591;PMS6003;32314;48.748;9.656;2024-02-26T02:17:30;0.67;0.67;0.33
46591;PMS6003;32314;48.748;9.656;2024-02-26T02:21:15;4.00;1.00;0.33
46591;PMS6003;32314;48.748;9.656;2024-02-26T02:25:01;1.00;1.00;0.33
46591;PMS6003;32314;48.748;9.656;2024-02-26T02:37:40;1.67;1.67;1.00
46591;PMS6003;32314;48.748;9.656;2024-02-26T02:41:13;4.00;0.67;0.00
46591;PMS6003;32314;48.748;9.656;2024-02-26T02:45:05;1.00;1.00;1.00
46591;PMS6003;32314;48.748;9.656;2024-02-26T02:48:04;3.00;0.00;0.00
46591;PMS6003;32314;48.748;9.656;2024-02-26T02:59:58;3.00;0.33;0.33
46591;PMS6003;32314;48.748;9.656;2024-02-26T03:02:47;4.00;1.00;1.00
46591;PMS6003;32314;48.748;9.656;2024-02-26T03:06:05;1.00;1.00;0.00
46591;PMS6003;32314;48.748;9.656;2024-02-26T03:12:53;1.00;1.00;1.00
46591;PMS6003;32314;48.748;9.656;2024-02-26T03:16:34;0.00;0.00;0.00
46591;PMS6003;32314;48.748;9.656;2024-02-26T03:20:04;1.00;0.00;0.00
46591;PMS6003;32314;48.748;9.656;2024-02-26T03:27:51;0.00;0.00;0.00
46591;PMS6003;32314;48.748;9.656;2024-02-26T03:36:24;0.67;0.67;0.67
46591;PMS6003;32314;48.748;9.656;2024-02-26T03:44:02;1.00;1.00;1.00
46591;PMS6003;32314;48.748;9.656;2024-02-26T03:48:18;1.00;1.00;1.00
46591;PMS6003;32314;48.748;9.656;2024-02-26T04:03:38;0.00;0.00;0.00
46591;PMS6003;32314;48.748;9.656;2024-02-26T04:06:24;0.00;0.00;0.00
46591;PMS6003;32314;48.748;9.656;2024-02-26T04:10:34;3.00;0.00;0.00
46591;PMS6003;32314;48.748;9.656;2024-02-26T04:14:27;1.00;1.00;0.67
46591;PMS6003;32314;48.748;9.656;2024-02-26T04:25:38;0.00;0.00;0.00
46591;PMS6003;32314;48.748;9.656;2024-02-26T04:31:54;7.00;3.00;1.00
46591;PMS6003;32314;48.748;9.656;2024-02-26T04:42:49;1.00;1.00;0.00
46591;PMS6003;32314;48.748;9.656;2024-02-26T04:46:13;0.00;0.00;0.00
46591;PMS6003;32314;48.748;9.656;2024-02-26T04:49:19;1.00;1.00;1.00
46591;PMS6003;32314;48.748;9.656;2024-02-26T04:52:25;1.00;1.00;0.00
46591;PMS6003;32314;48.748;9.656;2024-02-26T05:02:34;0.33;0.33;0.33
46591;PMS6003;32314;48.748;9.656;2024-02-26T05:09:46;4.67;4.67;4.00
46591;PMS6003;32314;48.748;9.656;2024-02-26T05:16:53;0.67;0.67;0.00
46591;PMS6003;32314;48.748;9.656;2024-02-26T05:25:36;2.33;1.00;0.00
46591;PMS6003;32314;48.748;9.656;2024-02-26T05:33:10;4.67;1.00;1.00
46591;PMS6003;32314;48.748;9.656;2024-02-26T05:36:17;4.00;4.00;1.00
46591;PMS6003;32314;48.748;9.656;2024-02-26T05:39:29;0.33;0.33;0.00
46591;PMS6003;32314;48.748;9.656;2024-02-26T05:43:00;3.00;3.00;2.33
46591;PMS6003;32314;48.748;9.656;2024-02-26T05:46:09;8.33;6.67;6.00
46591;PMS6003;32314;48.748;9.656;2024-02-26T05:49:22;28.67;25.33;14.00
46591;PMS6003;32314;48.748;9.656;2024-02-26T05:55:44;9.67;8.00;6.67
46591;PMS6003;32314;48.748;9.656;2024-02-26T05:59:36;6.00;5.33;4.00
46591;PMS6003;32314;48.748;9.656;2024-02-26T06:02:42;3.67;3.67;3.00
46591;PMS6003;32314;48.748;9.656;2024-02-26T06:05:36;9.33;6.33;5.33
46591;PMS6003;32314;48.748;9.656;2024-02-26T06:08:22;3.00;3.00;2.33
46591;PMS6003;32314;48.748;9.656;2024-02-26T06:11:28;1.67;1.00;0.67
46591;PMS6003;32314;48.748;9.656;2024-02-26T06:14:39;4.67;3.00;1.00
46591;PMS6003;32314;48.748;9.656;2024-02-26T06:17:27;7.00;7.00;4.67
46591;PMS6003;32314;48.748;9.656;2024-02-26T06:20:18;9.33;9.33;6.67
46591;PMS6003;32314;48.748;9.656;2024-02-26T06:23:17;7.00;7.00;6.00
46591;PMS6003;32314;48.748;9.656;2024-02-26T06:26:15;3.00;3.00;3.00
46591;PMS6003;32314;48.748;9.656;2024-02-26T06:29:25;4.00;4.00;3.00
46591;PMS6003;32314;48.748;9.656;2024-02-26T06:32:36;4.00;4.00;4.00
46591;PMS6003;32314;48.748;9.656;2024-02-26T06:35:58;4.67;4.67;4.00
46591;PMS6003;32314;48.748;9.656;2024-02-26T06:38:47;9.67;6.00;5.33
46591;PMS6003;32314;48.748;9.656;2024-02-26T06:41:37;8.33;7.00;6.00
46591;PMS6003;32314;48.748;9.656;2024-02-26T06:44:28;9.00;9.00;7.00
46591;PMS6003;32314;48.748;9.656;2024-02-26T06:47:23;7.00;7.00;6.00
46591;PMS6003;32314;48.748;9.656;2024-02-26T06:50:15;6.33;4.00;3.00
46591;PMS6003;32314;48.748;9.656;2024-02-26T06:53:38;7.67;4.00;3.00
46591;PMS6003;32314;48.748;9.656;2024-02-26T06:56:58;8.33;8.33;7.00
46591;PMS6003;32314;48.748;9.656;2024-02-26T06:59:48;21.67;18.00;15.00
46591;PMS6003;32314;48.748;9.656;2024-02-26T07:03:01;4.67;4.00;4.00
46591;PMS6003;32314;48.748;9.656;2024-02-26T07:05:56;3.33;3.33;3.33
46591;PMS6003;32314;48.748;9.656;2024-02-26T07:09:18;8.00;4.00;3.00
46591;PMS6003;32314;48.748;9.656;2024-02-26T07:12:29;9.00;9.00;6.67
46591;PMS6003;32314;48.748;9.656;2024-02-26T07:15:38;5.33;5.33;4.00
46591;PMS6003;32314;48.748;9.656;2024-02-26T07:18:30;4.00;4.00;3.00
46591;PMS6003;32314;48.748;9.656;2024-02-26T07:21:58;6.67;4.00;3.67
46591;PMS6003;32314;48.748;9.656;2024-02-26T07:34:14;6.33;6.33;6.00
46591;PMS6003;32314;48.748;9.656;2024-02-26T07:37:00;8.33;8.33;7.67
46591;PMS6003;32314;48.748;9.656;2024-02-26T07:39:46;3.00;3.00;3.00
46591;PMS6003;32314;48.748;9.656;2024-02-26T07:42:32;1.67;1.67;1.67
46591;PMS6003;32314;48.748;9.656;2024-02-26T07:45:18;3.00;3.00;3.00
46591;PMS6003;32314;48.748;9.656;2024-02-26T07:48:06;3.00;0.67;0.67
46591;PMS6003;32314;48.748;9.656;2024-02-26T07:50:52;3.00;3.00;3.00
46591;PMS6003;32314;48.748;9.656;2024-02-26T07:53:38;1.00;1.00;1.00
46591;PMS6003;32314;48.748;9.656;2024-02-26T07:56:24;3.00;3.00;3.00
46591;PMS6003;32314;48.748;9.656;2024-02-26T07:59:10;7.67;3.67;3.00
46591;PMS6003;32314;48.748;9.656;2024-02-26T08:01:56;1.00;1.00;1.00
46591;PMS6003;32314;48.748;9.656;2024-02-26T08:04:43;4.00;1.00;1.00
46591;PMS6003;32314;48.748;9.656;2024-02-26T08:07:29;4.00;1.00;1.00
46591;PMS6003;32314;48.748;9.656;2024-02-26T08:10:16;4.67;1.00;1.00
46591;PMS6003;32314;48.748;9.656;2024-02-26T08:13:02;4.00;1.00;1.00
46591;PMS6003;32314;48.748;9.656;2024-02-26T08:15:53;8.33;8.33;6.33
46591;PMS6003;32314;48.748;9.656;2024-02-26T08:18:40;3.67;3.67;2.33
46591;PMS6003;32314;48.748;9.656;2024-02-26T08:21:32;4.00;1.00;1.00
46591;PMS6003;32314;48.748;9.656;2024-02-26T08:24:18;12.33;10.33;7.67
46591;PMS6003;32314;48.748;9.656;2024-02-26T08:27:04;4.00;4.00;3.67
46591;PMS6003;32314;48.748;9.656;2024-02-26T08:29:50;10.00;10.00;7.00
46591;PMS6003;32314;48.748;9.656;2024-02-26T08:32:36;3.00;3.00;3.00
46591;PMS6003;32314;48.748;9.656;2024-02-26T08:35:26;4.00;4.00;3.00
46591;PMS6003;32314;48.748;9.656;2024-02-26T08:38:14;4.00;4.00;4.00
46591;PMS6003;32314;48.748;9.656;2024-02-26T08:41:04;3.00;3.00;3.00
46591;PMS6003;32314;48.748;9.656;2024-02-26T08:43:50;4.00;4.00;3.33
46591;PMS6003;32314;48.748;9.656;2024-02-26T08:46:36;0.00;0.00;0.00
46591;PMS6003;32314;48.748;9.656;2024-02-26T08:53:17;6.00;3.00;3.00
46591;PMS6003;32314;48.748;9.656;2024-02-26T08:59:23;1.00;1.00;1.00
46591;PMS6003;32314;48.748;9.656;2024-02-26T09:02:43;2.33;2.33;2.33
46591;PMS6003;32314;48.748;9.656;2024-02-26T09:06:32;3.00;3.00;3.00
46591;PMS6003;32314;48.748;9.656;2024-02-26T09:09:46;2.33;2.33;1.00
46591;PMS6003;32314;48.748;9.656;2024-02-26T09:20:57;2.33;2.33;1.00
46591;PMS6003;32314;48.748;9.656;2024-02-26T09:24:18;5.33;5.33;4.00
46591;PMS6003;32314;48.748;9.656;2024-02-26T09:27:26;3.00;3.00;3.00
46591;PMS6003;32314;48.748;9.656;2024-02-26T09:31:09;2.33;2.33;1.00
46591;PMS6003;32314;48.748;9.656;2024-02-26T09:34:19;4.00;4.00;3.00
46591;PMS6003;32314;48.748;9.656;2024-02-26T09:41:39;3.00;3.00;3.00
46591;PMS6003;32314;48.748;9.656;2024-02-26T09:45:12;1.67;1.67;1.67
46591;PMS6003;32314;48.748;9.656;2024-02-26T09:48:12;9.33;4.00;1.67
46591;PMS6003;32314;48.748;9.656;2024-02-26T09:51:20;4.00;4.00;3.67
46591;PMS6003;32314;48.748;9.656;2024-02-26T09:54:39;3.00;3.00;1.67
46591;PMS6003;32314;48.748;9.656;2024-02-26T09:57:53;3.67;3.67;3.00
46591;PMS6003;32314;48.748;9.656;2024-02-26T10:00:57;3.00;3.00;3.00
46591;PMS6003;32314;48.748;9.656;2024-02-26T10:04:16;3.00;3.00;1.67
46591;PMS6003;32314;48.748;9.656;2024-02-26T10:07:27;3.00;0.25;0.25
46591;PMS6003;32314;48.748;9.656;2024-02-26T10:10:46;2.50;1.00;1.00
46591;PMS6003;32314;48.748;9.656;2024-02-26T10:13:51;3.00;3.00;1.50
46591;PMS6003;32314;48.748;9.656;2024-02-26T10:16:43;3.00;3.00;1.50
46591;PMS6003;32314;48.748;9.656;2024-02-26T10:34:21;2.50;1.00;1.00
46591;PMS6003;32314;48.748;9.656;2024-02-26T10:41:20;1.00;1.00;1.00
46591;PMS6003;32314;48.748;9.656;2024-02-26T10:45:01;1.50;1.50;1.50
46591;PMS6003;32314;48.748;9.656;2024-02-26T10:48:26;1.00;1.00;1.00
46591;PMS6003;32314;48.748;9.656;2024-02-26T10:55:44;1.00;1.00;1.00
46591;PMS6003;32314;48.748;9.656;2024-02-26T10:59:02;4.00;3.00;1.00
46591;PMS6003;32314;48.748;9.656;2024-02-26T11:06:08;6.00;3.00;2.50
46591;PMS6003;32314;48.748;9.656;2024-02-26T11:13:12;1.50;1.50;1.00
46591;PMS6003;32314;48.748;9.656;2024-02-26T11:16:42;4.75;3.25;3.00
46591;PMS6003;32314;48.748;9.656;2024-02-26T11:23:26;1.00;1.00;1.00
46591;PMS6003;32314;48.748;9.656;2024-02-26T11:27:03;5.50;3.00;3.00
46591;PMS6003;32314;48.748;9.656;2024-02-26T11:31:24;6.00;3.50;3.00
46591;PMS6003;32314;48.748;9.656;2024-02-26T11:42:34;4.00;2.50;2.50
46591;PMS6003;32314;48.748;9.656;2024-02-26T11:45:55;1.00;1.00;0.75
46591;PMS6003;32314;48.748;9.656;2024-02-26T11:49:30;1.75;0.50;0.00
46591;PMS6003;32314;48.748;9.656;2024-02-26T11:52:35;1.00;1.00;0.75
46591;PMS6003;32314;48.748;9.656;2024-02-26T12:00:12;0.00;0.00;0.00
46591;PMS6003;32314;48.748;9.656;2024-02-26T12:08:20;0.00;0.00;0.00
46591;PMS6003;32314;48.748;9.656;2024-02-26T12:27:37;2.50;2.50;1.50
46591;PMS6003;32314;48.748;9.656;2024-02-26T12:42:15;1.75;1.00;1.00
46591;PMS6003;32314;48.748;9.656;2024-02-26T12:45:41;1.50;1.50;1.00
46591;PMS6003;32314;48.748;9.656;2024-02-26T12:52:28;2.50;2.00;1.50
46591;PMS6003;32314;48.748;9.656;2024-02-26T12:55:23;1.00;1.00;0.75
46591;PMS6003;32314;48.748;9.656;2024-02-26T12:58:31;1.00;1.00;1.00
46591;PMS6003;32314;48.748;9.656;2024-02-26T13:01:28;1.00;1.00;1.00
46591;PMS6003;32314;48.748;9.656;2024-02-26T13:05:22;1.00;1.00;1.00
46591;PMS6003;32314;48.748;9.656;2024-02-26T13:09:19;1.00;1.00;1.00
46591;PMS6003;32314;48.748;9.656;2024-02-26T13:12:50;2.50;0.75;0.75
46591;PMS6003;32314;48.748;9.656;2024-02-26T13:15:41;1.00;1.00;1.00
46591;PMS6003;32314;48.748;9.656;2024-02-26T13:19:21;3.50;3.00;2.50
46591;PMS6003;32314;48.748;9.656;2024-02-26T13:38:23;3.00;3.00;3.00
46591;PMS6003;32314;48.748;9.656;2024-02-26T13:42:07;3.75;1.00;1.00
46591;PMS6003;32314;48.748;9.656;2024-02-26T13:53:58;1.00;1.00;1.00
46591;PMS6003;32314;48.748;9.656;2024-02-26T14:18:15;4.00;1.50;1.50
46591;PMS6003;32314;48.748;9.656;2024-02-26T14:30:26;4.00;4.00;4.00
46591;PMS6003;32314;48.748;9.656;2024-02-26T15:20:20;3.25;3.00;3.00
46591;PMS6003;32314;48.748;9.656;2024-02-26T15:28:39;5.00;5.00;3.00
46591;PMS6003;32314;48.748;9.656;2024-02-26T16:57:01;3.00;3.00;2.00
46591;PMS6003;32314;48.748;9.656;2024-02-26T17:00:37;3.00;3.00;2.50
46591;PMS6003;32314;48.748;9.656;2024-02-26T17:03:23;3.50;3.50;3.00
46591;PMS6003;32314;48.748;9.656;2024-02-26T17:15:47;3.75;3.00;2.50
46591;PMS6003;32314;48.748;9.656;2024-02-26T17:23:03;3.00;3.00;2.00
46591;PMS6003;32314;48.748;9.656;2024-02-26T17:26:05;3.00;3.00;3.00
46591;PMS6003;32314;48.748;9.656;2024-02-26T18:36:12;14.33;12.00;10.00
46591;PMS6003;32314;48.748;9.656;2024-02-26T18:40:34;15.33;14.33;9.00
46591;PMS6003;32314;48.748;9.656;2024-02-26T19:33:49;19.00;18.00;13.00
46591;PMS6003;32314;48.748;9.656;2024-02-26T19:37:43;8.00;7.00;7.00
46591;PMS6003;32314;48.748;9.656;2024-02-26T20:51:10;0.00;0.00;0.00
46591;PMS6003;32314;48.748;9.656;2024-02-26T21:54:18;4.00;3.00;0.00
46591;PMS6003;32314;48.748;9.656;2024-02-26T22:01:20;1.00;1.00;1.00
46591;PMS6003;32314;48.748;9.656;2024-02-26T22:04:25;1.00;1.00;0.00
46591;PMS6003;32314;48.748;9.656;2024-02-26T22:07:23;1.00;1.00;1.00
46591;PMS6003;32314;48.748;9.656;2024-02-26T22:10:37;3.67;3.67;3.33
46591;PMS6003;32314;48.748;9.656;2024-02-26T22:14:17;1.00;1.00;1.00
46591;PMS6003;32314;48.748;9.656;2024-02-26T22:17:16;4.00;1.00;1.00
46591;PMS6003;32314;48.748;9.656;2024-02-26T22:20:02;3.00;3.00;1.00
46591;PMS6003;32314;48.748;9.656;2024-02-26T22:23:04;3.67;3.67;3.00
46591;PMS6003;32314;48.748;9.656;2024-02-26T22:26:12;2.00;1.00;1.00
46591;PMS6003;32314;48.748;9.656;2024-02-26T22:29:31;10.67;4.00;4.00
46591;PMS6003;32314;48.748;9.656;2024-02-26T22:33:01;4.00;4.00;3.00
46591;PMS6003;32314;48.748;9.656;2024-02-26T22:36:12;6.00;3.00;3.00
46591;PMS6003;32314;48.748;9.656;2024-02-26T22:39:15;7.67;5.33;3.00
46591;PMS6003;32314;48.748;9.656;2024-02-26T22:42:07;3.00;3.00;2.33
46591;PMS6003;32314;48.748;9.656;2024-02-26T22:45:16;4.00;2.33;1.00
46591;PMS6003;32314;48.748;9.656;2024-02-26T22:48:17;1.00;1.00;1.00
46591;PMS6003;32314;48.748;9.656;2024-02-26T22:51:19;3.00;3.00;3.00
46591;PMS6003;32314;48.748;9.656;2024-02-26T22:54:08;1.00;1.00;0.67
46591;PMS6003;32314;48.748;9.656;2024-02-26T22:57:11;1.67;1.67;1.67
46591;PMS6003;32314;48.748;9.656;2024-02-26T23:00:10;7.00;3.67;1.00
46591;PMS6003;32314;48.748;9.656;2024-02-26T23:03:21;4.00;2.33;1.67
46591;PMS6003;32314;48.748;9.656;2024-02-26T23:06:18;1.00;1.00;1.00
46591;PMS6003;32314;48.748;9.656;2024-02-26T23:09:18;1.67;1.67;1.67
46591;PMS6003;32314;48.748;9.656;2024-02-26T23:15:52;3.00;1.00;0.33
46591;PMS6003;32314;48.748;9.656;2024-02-26T23:18:53;1.00;1.00;1.00
46591;PMS6003;32314;48.748;9.656;2024-02-26T23:21:50;1.00;1.00;1.00
46591;PMS6003;32314;48.748;9.656;2024-02-26T23:25:25;3.00;1.00;0.00
46591;PMS6003;32314;48.748;9.656;2024-02-26T23:28:34;0.33;0.33;0.00
46591;PMS6003;32314;48.748;9.656;2024-02-26T23:31:32;1.00;1.00;1.00
46591;PMS6003;32314;48.748;9.656;2024-02-26T23:34:40;3.00;3.00;2.33
46591;PMS6003;32314;48.748;9.656;2024-02-26T23:37:36;4.00;1.67;1.67
46591;PMS6003;32314;48.748;9.656;2024-02-26T23:40:33;3.00;3.00;3.00
46591;PMS6003;32314;48.748;9.656;2024-02-26T23:43:33;1.00;1.00;1.00
46591;PMS6003;32314;48.748;9.656;2024-02-26T23:46:35;0.00;0.00;0.00
46591;PMS6003;32314;48.748;9.656;2024-02-26T23:49:49;12.67;4.00;3.00
46591;PMS6003;32314;48.748;9.656;2024-02-26T23:53:02;1.67;1.67;1.00
46591;PMS6003;32314;48.748;9.656;2024-02-26T23:56:27;1.67;1.67;1.00
46591;PMS6003;32314;48.748;9.656;2024-02-26T23:59:19;2.00;1.00;1.00
